createdAt,value
2023-02-09T00:02:18.299Z,102128.41
2023-02-09T00:04:47.629Z,102136.19
2023-02-09T00:07:15.392Z,102132.63
2023-02-09T00:09:44.918Z,102102.59
2023-02-09T00:12:45.125Z,102085.88
2023-02-09T00:15:12.765Z,102121.72
2023-02-09T00:17:40.529Z,102126.81
2023-02-09T00:20:11.235Z,102099.41
2023-02-09T00:22:39.076Z,102125.31
2023-02-09T00:25:07.505Z,102110.88
2023-02-09T00:27:36.593Z,102056.00
2023-02-09T00:30:05.541Z,102121.78
2023-02-09T00:32:33.918Z,102122.72
2023-02-09T00:35:01.989Z,102112.75
2023-02-09T00:37:31.175Z,102086.28
2023-02-09T00:39:58.963Z,102108.72
2023-02-09T00:42:26.842Z,101999.81
2023-02-09T00:44:54.608Z,102109.06
2023-02-09T00:47:22.697Z,102037.78
2023-02-09T00:49:50.469Z,102106.31
2023-02-09T00:52:18.251Z,102085.94
2023-02-09T00:54:47.623Z,102100.94
2023-02-09T00:57:17.645Z,102098.63
2023-02-09T00:59:45.587Z,102094.53
2023-02-09T01:02:13.638Z,102106.72
2023-02-09T01:04:41.522Z,102108.25
2023-02-09T01:07:09.383Z,102097.59
2023-02-09T01:09:37.901Z,102097.53
2023-02-09T01:12:09.628Z,102085.44
2023-02-09T01:14:39.067Z,102041.56
2023-02-09T01:17:07.328Z,102096.09
2023-02-09T01:19:35.939Z,102093.75
2023-02-09T01:22:04.771Z,102093.31
2023-02-09T01:24:32.808Z,102095.13
2023-02-09T01:27:00.778Z,102075.91
2023-02-09T01:29:30.169Z,102088.97
2023-02-09T01:31:58.242Z,102088.72
2023-02-09T01:34:26.227Z,102082.44
2023-02-09T01:36:54.702Z,102068.56
2023-02-09T01:39:22.717Z,102088.41
2023-02-09T01:41:50.802Z,102078.16
2023-02-09T01:44:56.004Z,102074.00
2023-02-09T01:47:25.401Z,102076.19
2023-02-09T01:49:53.369Z,102075.09
2023-02-09T01:52:26.478Z,102081.56
2023-02-09T01:54:58.873Z,102085.00
2023-02-09T01:57:30.935Z,102078.91
2023-02-09T02:00:02.507Z,102071.06
2023-02-09T02:02:45.832Z,102004.13
2023-02-09T02:05:14.380Z,102063.06
2023-02-09T02:07:46.624Z,102056.56
2023-02-09T02:10:14.551Z,102061.81
2023-02-09T02:12:42.655Z,102023.34
2023-02-09T02:15:12.787Z,102024.56
2023-02-09T02:17:57.086Z,102053.41
2023-02-09T02:21:05.508Z,102054.03
2023-02-09T02:23:42.058Z,102033.75
2023-02-09T02:26:49.422Z,102027.84
2023-02-09T02:29:55.744Z,102023.06
2023-02-09T02:32:38.389Z,102018.72
2023-02-09T02:35:11.920Z,102016.84
2023-02-09T02:37:52.109Z,101863.72
2023-02-09T02:40:33.222Z,102015.81
2023-02-09T02:43:07.613Z,101993.59
2023-02-09T02:45:43.775Z,102008.03
2023-02-09T02:48:24.944Z,102018.88
2023-02-09T02:50:58.638Z,102007.63
2023-02-09T02:53:30.755Z,101977.16
2023-02-09T02:56:02.660Z,102001.44
2023-02-09T02:58:31.799Z,102005.09
2023-02-09T03:01:02.921Z,102014.81
2023-02-09T03:03:35.439Z,102014.59
2023-02-09T03:06:07.162Z,102014.28
2023-02-09T03:08:48.579Z,101994.03
2023-02-09T03:11:17.944Z,101966.38
2023-02-09T03:14:01.121Z,101991.75
2023-02-09T03:16:35.400Z,101996.09
2023-02-09T03:19:14.801Z,101996.66
2023-02-09T03:21:50.948Z,102002.31
2023-02-09T03:24:29.182Z,102003.28
2023-02-09T03:26:59.805Z,101975.31
2023-02-09T03:29:30.434Z,101994.19
2023-02-09T03:31:58.864Z,101963.38
2023-02-09T03:34:28.646Z,101921.69
2023-02-09T03:36:58.550Z,101995.78
2023-02-09T03:39:26.403Z,101946.84
2023-02-09T03:41:54.402Z,101994.41
2023-02-09T03:44:29.121Z,101988.81
2023-02-09T03:46:59.135Z,101969.59
2023-02-09T03:49:31.567Z,101993.81
2023-02-09T03:52:00.630Z,101942.81
2023-02-09T03:54:28.569Z,101953.78
2023-02-09T03:56:56.552Z,101983.22
2023-02-09T03:59:25.928Z,101977.09
2023-02-09T04:01:54.767Z,101979.66
2023-02-09T04:04:23.392Z,101959.50
2023-02-09T04:06:52.992Z,101867.44
2023-02-09T04:09:21.216Z,101922.97
2023-02-09T04:11:49.304Z,101973.44
2023-02-09T04:14:17.506Z,101973.72
2023-02-09T04:16:45.473Z,101966.00
2023-02-09T04:19:13.660Z,101954.94
2023-02-09T04:21:41.636Z,101962.66
2023-02-09T04:24:10.944Z,101963.25
2023-02-09T04:26:39.026Z,101892.38
2023-02-09T04:29:06.912Z,101962.88
2023-02-09T04:31:35.904Z,101901.19
2023-02-09T04:34:03.956Z,101961.91
2023-02-09T04:36:31.894Z,101959.91
2023-02-09T04:38:59.748Z,101954.06
2023-02-09T04:41:29.038Z,101943.75
2023-02-09T04:43:57.055Z,101945.47
2023-02-09T04:46:24.905Z,101937.00
2023-02-09T04:48:52.712Z,101943.50
2023-02-09T04:51:20.534Z,101849.56
2023-02-09T04:53:48.353Z,101936.41
2023-02-09T04:56:17.166Z,101921.50
2023-02-09T04:59:04.015Z,101937.38
2023-02-09T05:01:32.075Z,101943.94
2023-02-09T05:03:59.968Z,101949.81
2023-02-09T05:06:27.812Z,101894.38
2023-02-09T05:08:55.627Z,101941.13
2023-02-09T05:11:25.454Z,101946.25
2023-02-09T05:13:54.703Z,101934.53
2023-02-09T05:16:22.531Z,101923.16
2023-02-09T05:18:51.061Z,101929.81
2023-02-09T05:21:19.173Z,101924.50
2023-02-09T05:23:46.945Z,101926.00
2023-02-09T05:26:14.832Z,101927.75
2023-02-09T05:28:42.762Z,101924.00
2023-02-09T05:31:12.095Z,101928.16
2023-02-09T05:33:39.884Z,101928.97
2023-02-09T05:36:09.691Z,101923.47
2023-02-09T05:38:37.633Z,101932.53
2023-02-09T05:41:06.671Z,101921.03
2023-02-09T05:43:34.466Z,101921.97
2023-02-09T05:46:02.413Z,101919.00
2023-02-09T05:48:31.696Z,101748.53
2023-02-09T05:50:59.480Z,101893.13
2023-02-09T05:53:27.292Z,101766.75
2023-02-09T05:55:55.071Z,101926.72
2023-02-09T05:58:22.872Z,101928.22
2023-02-09T06:00:50.703Z,101916.75
2023-02-09T06:03:18.528Z,101923.66
2023-02-09T06:05:47.712Z,101915.06
2023-02-09T06:08:15.899Z,101921.19
2023-02-09T06:10:43.859Z,101909.47
2023-02-09T06:13:11.892Z,101917.91
2023-02-09T06:15:39.700Z,101914.41
2023-02-09T06:18:07.658Z,101911.34
2023-02-09T06:20:35.676Z,101880.06
2023-02-09T06:23:05.355Z,101917.31
2023-02-09T06:25:33.259Z,101925.50
2023-02-09T06:28:02.677Z,101928.13
2023-02-09T06:30:32.817Z,101898.16
2023-02-09T06:33:00.768Z,101940.09
2023-02-09T06:35:28.664Z,101935.88
2023-02-09T06:37:58.155Z,101947.41
2023-02-09T06:40:27.451Z,101961.63
2023-02-09T06:42:55.317Z,101957.28
2023-02-09T06:45:23.175Z,101960.13
2023-02-09T06:47:50.984Z,101924.00
2023-02-09T06:50:19.453Z,101966.31
2023-02-09T06:52:47.572Z,101995.00
2023-02-09T06:55:16.144Z,101988.38
2023-02-09T06:57:45.359Z,101975.81
2023-02-09T07:00:14.802Z,101939.47
2023-02-09T07:02:44.094Z,101960.63
2023-02-09T07:05:12.627Z,101953.22
2023-02-09T07:07:40.925Z,101940.97
2023-02-09T07:10:10.251Z,101956.81
2023-02-09T07:12:40.530Z,101959.25
2023-02-09T07:15:11.022Z,101970.41
2023-02-09T07:17:39.081Z,101967.06
2023-02-09T07:20:09.004Z,101969.47
2023-02-09T07:22:36.983Z,101972.00
2023-02-09T07:25:05.116Z,101965.13
2023-02-09T07:27:33.189Z,101955.50
2023-02-09T07:30:01.455Z,101960.38
2023-02-09T07:32:30.765Z,101907.25
2023-02-09T07:34:59.427Z,101959.78
2023-02-09T07:37:27.314Z,101949.97
2023-02-09T07:39:55.368Z,101948.72
2023-02-09T07:42:23.515Z,101971.31
2023-02-09T07:44:58.049Z,101972.66
2023-02-09T07:47:25.872Z,101976.06
2023-02-09T07:49:55.167Z,101971.00
2023-02-09T07:52:23.049Z,101957.69
2023-02-09T07:54:51.706Z,101813.81
2023-02-09T07:57:19.659Z,101967.75
2023-02-09T07:59:47.548Z,101974.41
2023-02-09T08:02:27.225Z,101968.50
2023-02-09T08:05:00.955Z,101973.31
2023-02-09T08:07:35.141Z,101944.69
2023-02-09T08:10:03.128Z,101973.81
2023-02-09T08:12:50.364Z,101978.25
2023-02-09T08:15:22.116Z,101979.59
2023-02-09T08:17:52.364Z,101976.75
2023-02-09T08:20:23.416Z,101969.38
2023-02-09T08:22:55.518Z,101962.88
2023-02-09T08:25:25.525Z,101960.69
2023-02-09T08:27:54.394Z,101814.66
2023-02-09T08:30:22.624Z,101942.44
2023-02-09T08:32:50.864Z,101936.97
2023-02-09T08:35:18.976Z,101958.06
2023-02-09T08:37:48.322Z,101968.94
2023-02-09T08:40:16.212Z,101846.75
2023-02-09T08:42:44.148Z,101953.75
2023-02-09T08:45:12.200Z,101965.19
2023-02-09T08:47:40.102Z,101964.31
2023-02-09T08:50:08.257Z,101952.03
2023-02-09T08:52:36.256Z,101953.13
2023-02-09T08:55:06.253Z,101833.44
2023-02-09T08:57:43.429Z,101950.81
2023-02-09T09:00:13.382Z,101948.75
2023-02-09T09:02:41.293Z,101972.63
2023-02-09T09:05:09.702Z,101967.44
2023-02-09T09:07:37.525Z,101960.00
2023-02-09T09:10:08.902Z,101969.91
2023-02-09T09:12:37.516Z,101989.47
2023-02-09T09:15:05.836Z,101988.56
2023-02-09T09:17:33.705Z,101922.50
2023-02-09T09:20:01.544Z,101980.53
2023-02-09T09:22:29.436Z,101987.75
2023-02-09T09:24:57.393Z,101983.38
2023-02-09T09:27:27.091Z,102000.00
2023-02-09T09:29:55.264Z,101991.59
2023-02-09T09:32:24.845Z,101966.25
2023-02-09T09:34:54.441Z,101992.47
2023-02-09T09:37:23.027Z,101992.44
2023-02-09T09:39:51.507Z,101992.16
2023-02-09T09:42:25.421Z,101993.34
2023-02-09T09:44:55.869Z,101994.31
2023-02-09T09:47:37.266Z,102001.56
2023-02-09T09:50:08.742Z,102006.38
2023-02-09T09:52:41.356Z,101998.53
2023-02-09T09:55:10.894Z,101923.09
2023-02-09T09:57:44.483Z,102005.47
2023-02-09T10:00:19.743Z,101994.59
2023-02-09T10:02:48.169Z,101969.81
2023-02-09T10:05:19.829Z,101954.03
2023-02-09T10:07:55.420Z,101991.75
2023-02-09T10:10:37.854Z,101999.75
2023-02-09T10:13:14.498Z,101972.03
2023-02-09T10:15:48.777Z,102000.72
2023-02-09T10:18:18.064Z,101991.63
2023-02-09T10:20:49.336Z,102001.56
2023-02-09T10:23:20.197Z,101917.19
2023-02-09T10:25:58.793Z,102013.78
2023-02-09T10:28:29.545Z,101993.47
2023-02-09T10:31:02.044Z,101980.31
2023-02-09T10:33:38.486Z,101979.03
2023-02-09T10:36:09.925Z,102003.09
2023-02-09T10:38:41.925Z,101998.69
2023-02-09T10:41:11.421Z,102002.41
2023-02-09T10:43:39.451Z,102008.63
2023-02-09T10:46:17.193Z,101990.81
2023-02-09T10:48:47.246Z,102002.47
2023-02-09T10:51:17.397Z,102000.09
2023-02-09T10:53:58.372Z,101996.56
2023-02-09T10:56:28.699Z,101993.41
2023-02-09T10:59:01.212Z,101958.81
2023-02-09T11:01:34.078Z,101945.28
2023-02-09T11:04:04.580Z,101976.66
2023-02-09T11:06:42.412Z,101972.78
2023-02-09T11:09:15.329Z,101914.88
2023-02-09T11:11:45.038Z,101978.44
2023-02-09T11:14:14.805Z,101968.88
2023-02-09T11:16:56.929Z,101974.38
2023-02-09T11:19:53.902Z,101958.41
2023-02-09T11:22:35.364Z,101951.53
2023-02-09T11:25:11.975Z,101947.19
2023-02-09T11:27:56.969Z,101899.16
2023-02-09T11:30:50.513Z,101911.03
2023-02-09T11:33:27.655Z,101910.13
2023-02-09T11:36:04.959Z,101917.38
2023-02-09T11:38:41.279Z,101929.66
2023-02-09T11:41:28.244Z,101926.38
2023-02-09T11:43:59.282Z,101910.47
2023-02-09T11:46:32.616Z,101907.03
2023-02-09T11:49:08.150Z,101824.16
2023-02-09T11:51:40.373Z,101852.97
2023-02-09T11:54:15.343Z,101796.91
2023-02-09T11:56:49.354Z,101888.94
2023-02-09T11:59:23.811Z,101871.41
2023-02-09T12:01:58.559Z,101823.16
2023-02-09T12:04:33.409Z,101867.66
2023-02-09T12:07:03.687Z,101889.13
2023-02-09T12:09:36.794Z,101890.13
2023-02-09T12:12:24.268Z,101902.34
2023-02-09T12:15:02.919Z,101778.69
2023-02-09T12:17:40.350Z,101851.63
2023-02-09T12:20:27.527Z,101871.34
2023-02-09T12:23:07.995Z,101889.22
2023-02-09T12:25:51.493Z,101879.50
2023-02-09T12:28:41.132Z,101864.13
2023-02-09T12:31:12.765Z,101872.00
2023-02-09T12:34:01.217Z,101879.13
2023-02-09T12:36:32.914Z,101845.28
2023-02-09T12:39:06.462Z,101917.44
2023-02-09T12:42:19.283Z,101907.59
2023-02-09T12:45:00.609Z,101918.41
2023-02-09T12:47:48.433Z,101913.25
2023-02-09T12:50:36.322Z,101920.53
2023-02-09T12:53:35.757Z,101915.22
2023-02-09T12:56:25.111Z,101916.88
2023-02-09T12:59:07.214Z,101901.81
2023-02-09T13:02:35.831Z,101912.34
2023-02-09T13:05:08.934Z,101900.84
2023-02-09T13:07:49.950Z,101907.16
2023-02-09T13:10:28.829Z,101913.47
2023-02-09T13:13:04.518Z,101907.44
2023-02-09T13:15:46.855Z,101864.66
2023-02-09T13:18:21.081Z,101878.84
2023-02-09T13:21:17.120Z,101900.25
2023-02-09T13:23:59.284Z,101888.81
2023-02-09T13:26:34.366Z,101876.47
2023-02-09T13:29:20.541Z,101871.91
2023-02-09T13:31:58.988Z,101887.19
2023-02-09T13:34:35.577Z,101873.94
2023-02-09T13:37:22.085Z,101863.06
2023-02-09T13:39:57.781Z,101863.03
2023-02-09T13:42:28.755Z,101872.13
2023-02-09T13:44:58.419Z,101887.84
2023-02-09T13:47:27.553Z,101754.09
2023-02-09T13:50:01.149Z,101860.38
2023-02-09T13:52:36.336Z,101856.63
2023-02-09T13:55:13.951Z,101862.84
2023-02-09T13:57:44.875Z,101869.09
2023-02-09T14:00:24.328Z,101876.41
2023-02-09T14:02:56.901Z,101871.09
2023-02-09T14:05:35.473Z,101866.84
2023-02-09T14:08:04.197Z,101853.38
2023-02-09T14:10:35.160Z,101803.66
2023-02-09T14:13:11.119Z,101789.38
2023-02-09T14:16:02.746Z,101848.22
2023-02-09T14:18:35.281Z,101834.88
2023-02-09T14:21:14.535Z,101840.22
2023-02-09T14:23:43.853Z,101823.28
2023-02-09T14:26:22.623Z,101807.13
2023-02-09T14:28:55.666Z,101588.00
2023-02-09T14:31:26.104Z,101848.75
2023-02-09T14:33:56.633Z,101832.84
2023-02-09T14:36:30.164Z,101845.25
2023-02-09T14:39:08.168Z,101791.09
2023-02-09T14:41:36.662Z,101845.13
2023-02-09T14:44:20.185Z,101843.03
2023-02-09T14:46:50.441Z,101837.56
2023-02-09T14:49:19.362Z,101851.09
2023-02-09T14:51:49.239Z,101807.31
2023-02-09T14:54:23.553Z,101850.91
2023-02-09T14:56:51.900Z,101856.19
2023-02-09T14:59:22.628Z,101854.22
2023-02-09T15:01:52.634Z,101847.25
2023-02-09T15:04:21.630Z,101805.25
2023-02-09T15:06:57.580Z,101845.47
2023-02-09T15:09:30.811Z,101843.59
2023-02-09T15:12:07.521Z,101842.94
2023-02-09T15:14:46.209Z,101838.28
2023-02-09T15:17:17.057Z,101817.97
2023-02-09T15:19:45.817Z,101837.53
2023-02-09T15:22:16.119Z,101840.00
2023-02-09T15:24:45.389Z,101853.94
2023-02-09T15:27:28.355Z,101718.41
2023-02-09T15:30:00.165Z,101853.97
2023-02-09T15:32:29.627Z,101844.84
2023-02-09T15:34:57.548Z,101830.56
2023-02-09T15:37:27.822Z,101858.03
2023-02-09T15:39:56.879Z,101867.59
2023-02-09T15:42:42.245Z,101863.00
2023-02-09T15:45:38.034Z,101857.56
2023-02-09T15:48:06.441Z,101834.25
2023-02-09T15:50:35.966Z,101848.41
2023-02-09T15:53:06.447Z,101852.81
2023-02-09T15:55:36.062Z,101856.28
2023-02-09T15:58:04.461Z,101857.03
2023-02-09T16:00:33.715Z,101867.44
2023-02-09T16:03:15.666Z,101870.03
2023-02-09T16:05:44.151Z,101881.28
2023-02-09T16:08:19.021Z,101881.06
2023-02-09T16:10:48.291Z,101857.72
2023-02-09T16:13:17.324Z,101875.41
2023-02-09T16:15:47.348Z,101880.44
2023-02-09T16:18:15.542Z,101894.53
2023-02-09T16:20:47.137Z,101894.25
2023-02-09T16:23:20.869Z,101904.63
2023-02-09T16:25:50.379Z,101913.94
2023-02-09T16:28:18.749Z,101916.38
2023-02-09T16:30:53.395Z,101912.72
2023-02-09T16:33:22.655Z,101919.59
2023-02-09T16:35:54.553Z,101920.47
2023-02-09T16:38:24.280Z,101919.31
2023-02-09T16:40:53.696Z,101927.16
2023-02-09T16:43:22.884Z,101932.25
2023-02-09T16:46:02.751Z,101927.00
2023-02-09T16:48:34.457Z,101941.19
2023-02-09T16:51:02.768Z,101937.41
2023-02-09T16:53:36.048Z,101950.59
2023-02-09T16:56:06.419Z,101950.53
2023-02-09T16:58:34.536Z,101922.53
2023-02-09T17:01:04.345Z,101951.94
2023-02-09T17:03:37.906Z,101848.16
2023-02-09T17:06:07.226Z,101961.00
2023-02-09T17:08:35.829Z,101959.69
2023-02-09T17:11:05.212Z,101962.94
2023-02-09T17:13:33.174Z,101969.59
2023-02-09T17:16:05.004Z,101854.84
2023-02-09T17:18:35.467Z,101989.69
2023-02-09T17:21:07.628Z,101997.84
2023-02-09T17:23:36.920Z,101905.44
2023-02-09T17:26:05.085Z,101994.66
2023-02-09T17:28:33.137Z,101982.19
2023-02-09T17:31:04.347Z,101996.56
2023-02-09T17:33:34.319Z,101998.94
2023-02-09T17:36:25.074Z,101992.38
2023-02-09T17:38:52.191Z,102001.56
2023-02-09T17:41:22.970Z,101930.53
2023-02-09T17:43:51.804Z,102002.69
2023-02-09T17:46:21.564Z,101956.84
2023-02-09T17:48:50.101Z,101992.63
2023-02-09T17:51:22.136Z,101987.59
2023-02-09T17:53:50.573Z,101993.84
2023-02-09T17:56:19.470Z,101978.00
2023-02-09T17:58:48.380Z,102002.03
2023-02-09T18:01:27.262Z,101993.72
2023-02-09T18:03:56.014Z,102004.03
2023-02-09T18:06:29.961Z,101993.38
2023-02-09T18:08:58.087Z,101980.75
2023-02-09T18:11:41.497Z,102005.25
2023-02-09T18:14:11.132Z,101978.50
2023-02-09T18:16:41.177Z,102018.06
2023-02-09T18:19:10.820Z,102029.91
2023-02-09T18:21:39.692Z,102028.03
2023-02-09T18:24:08.392Z,102015.28
2023-02-09T18:26:36.278Z,102029.91
2023-02-09T18:29:04.206Z,102024.63
2023-02-09T18:31:32.061Z,102036.28
2023-02-09T18:34:01.237Z,101979.22
2023-02-09T18:36:29.156Z,102037.59
2023-02-09T18:38:57.473Z,102046.00
2023-02-09T18:41:25.374Z,102021.53
2023-02-09T18:43:54.429Z,102052.00
2023-02-09T18:46:24.530Z,102052.41
2023-02-09T18:48:52.482Z,102042.44
2023-02-09T18:51:22.660Z,102028.84
2023-02-09T18:53:51.306Z,102061.91
2023-02-09T18:56:19.567Z,102034.38
2023-02-09T18:58:48.585Z,102060.22
2023-02-09T19:01:16.727Z,102062.88
2023-02-09T19:03:44.654Z,102071.69
2023-02-09T19:06:13.000Z,102062.00
2023-02-09T19:08:42.397Z,102063.78
2023-02-09T19:11:14.964Z,102049.28
2023-02-09T19:13:42.841Z,102068.22
2023-02-09T19:16:13.953Z,102076.28
2023-02-09T19:18:41.803Z,102081.66
2023-02-09T19:21:09.708Z,102004.09
2023-02-09T19:23:37.570Z,102074.88
2023-02-09T19:26:07.108Z,102074.06
2023-02-09T19:28:36.306Z,102078.25
2023-02-09T19:31:04.377Z,102053.22
2023-02-09T19:33:32.421Z,102081.72
2023-02-09T19:36:01.069Z,102080.03
2023-02-09T19:38:28.950Z,102048.94
2023-02-09T19:41:09.759Z,102084.81
2023-02-09T19:43:39.667Z,102084.78
2023-02-09T19:46:09.833Z,102051.63
2023-02-09T19:48:40.265Z,102077.84
2023-02-09T19:51:09.182Z,102076.00
2023-02-09T19:53:37.278Z,102075.34
2023-02-09T19:56:05.752Z,101999.19
2023-02-09T19:58:33.626Z,102021.56
2023-02-09T20:01:02.797Z,102065.59
2023-02-09T20:03:31.092Z,102067.34
2023-02-09T20:05:58.874Z,102046.03
2023-02-09T20:08:26.875Z,102066.78
2023-02-09T20:10:54.734Z,101964.84
2023-02-09T20:15:56.010Z,102064.28
2023-02-09T20:18:25.341Z,102063.03
2023-02-09T20:20:54.400Z,102065.81
2023-02-09T20:23:22.346Z,102069.03
2023-02-09T20:25:50.191Z,102059.06
2023-02-09T20:28:18.210Z,102043.06
2023-02-09T20:30:47.858Z,102059.28
2023-02-09T20:33:16.098Z,102013.84
2023-02-09T20:35:46.622Z,102074.50
2023-02-09T20:38:14.620Z,102062.34
2023-02-09T20:40:43.912Z,102065.84
2023-02-09T20:43:30.777Z,102063.22
2023-02-09T20:46:30.467Z,102059.63
2023-02-09T20:48:58.594Z,102060.78
2023-02-09T20:51:28.062Z,102058.00
2023-02-09T20:53:56.050Z,102058.00
2023-02-09T20:56:24.160Z,102060.09
2023-02-09T20:58:52.489Z,102057.38
2023-02-09T21:01:20.490Z,102003.41
2023-02-09T21:03:48.371Z,102049.94
2023-02-09T21:06:16.314Z,102060.75
2023-02-09T21:08:45.644Z,102060.22
2023-02-09T21:11:15.221Z,102055.00
2023-02-09T21:13:43.536Z,102030.06
2023-02-09T21:16:13.425Z,102048.25
2023-02-09T21:18:41.297Z,102043.03
2023-02-09T21:21:10.334Z,102038.56
2023-02-09T21:23:38.558Z,102057.13
2023-02-09T21:26:10.605Z,102059.88
2023-02-09T21:28:39.226Z,101887.44
2023-02-09T21:31:11.008Z,102051.78
2023-02-09T21:33:39.266Z,102058.50
2023-02-09T21:36:08.323Z,102056.97
2023-02-09T21:38:41.553Z,102055.81
2023-02-09T21:41:33.272Z,102064.91
2023-02-09T21:44:01.622Z,102061.31
2023-02-09T21:46:30.804Z,102064.03
2023-02-09T21:48:58.982Z,102062.38
2023-02-09T21:51:26.953Z,102064.19
2023-02-09T21:53:55.996Z,102066.28
2023-02-09T21:56:26.109Z,102038.56
2023-02-09T21:58:54.182Z,102067.00
2023-02-09T22:01:22.183Z,102076.44
2023-02-09T22:03:52.724Z,101934.47
2023-02-09T22:06:20.610Z,102073.19
2023-02-09T22:08:48.632Z,102075.00
2023-02-09T22:11:16.487Z,102074.03
2023-02-09T22:13:45.744Z,102033.94
2023-02-09T22:16:19.111Z,102075.66
2023-02-09T22:18:47.041Z,102075.66
2023-02-09T22:21:14.975Z,102074.13
2023-02-09T22:23:43.215Z,102079.84
2023-02-09T22:26:12.917Z,102081.59
2023-02-09T22:28:41.349Z,102018.09
2023-02-09T22:31:13.283Z,102092.31
2023-02-09T22:33:41.634Z,102092.06
2023-02-09T22:36:13.126Z,102084.09
2023-02-09T22:38:41.733Z,102092.38
2023-02-09T22:41:21.443Z,102091.19
2023-02-09T22:43:50.643Z,102099.47
2023-02-09T22:46:20.781Z,102107.28
2023-02-09T22:48:52.312Z,102076.56
2023-02-09T22:51:20.480Z,102099.47
2023-02-09T22:53:49.215Z,102127.69
2023-02-09T22:56:17.689Z,102125.16
2023-02-09T22:58:46.108Z,102129.94
2023-02-09T23:01:14.322Z,102128.47
2023-02-09T23:03:43.520Z,102132.63
2023-02-09T23:06:15.406Z,102127.81
2023-02-09T23:08:43.841Z,102126.06
2023-02-09T23:11:14.760Z,102030.53
2023-02-09T23:13:43.554Z,102139.94
2023-02-09T23:16:13.425Z,102146.94
2023-02-09T23:18:47.502Z,102154.56
2023-02-09T23:21:16.141Z,102140.34
2023-02-09T23:23:44.887Z,102164.06
2023-02-09T23:26:13.964Z,102155.06
2023-02-09T23:28:42.092Z,102145.94
2023-02-09T23:31:13.112Z,102161.25
2023-02-09T23:33:41.150Z,102156.41
2023-02-09T23:36:12.792Z,102154.75
2023-02-09T23:38:41.094Z,102154.94
2023-02-09T23:41:10.531Z,102051.97
2023-02-09T23:43:38.840Z,102167.09
2023-02-09T23:46:08.611Z,102169.44
2023-02-09T23:48:36.482Z,102152.91
2023-02-09T23:51:06.880Z,102170.56
2023-02-09T23:53:37.016Z,102112.28
2023-02-09T23:56:04.976Z,102175.22
2023-02-09T23:58:32.942Z,102168.66
